createdAt,value
2017-07-25T00:00:40.178Z,999.53
2017-07-25T00:02:32.711Z,999.53
2017-07-25T00:03:13.180Z,999.53
2017-07-25T00:05:10.766Z,999.53
2017-07-25T00:05:51.180Z,999.5
2017-07-25T00:06:31.630Z,999.49
2017-07-25T00:07:12.081Z,999.5
2017-07-25T00:07:53.211Z,999.5
2017-07-25T00:08:33.741Z,999.47
2017-07-25T00:09:14.223Z,999.49
2017-07-25T00:09:54.788Z,999.52
2017-07-25T00:12:22.842Z,999.54
2017-07-25T00:13:03.272Z,999.53
2017-07-25T00:15:21.721Z,999.48
2017-07-25T00:16:02.133Z,999.47
2017-07-25T00:16:42.581Z,999.46
2017-07-25T00:17:23.047Z,999.49
2017-07-25T00:18:04.275Z,999.49
2017-07-25T00:18:46.281Z,999.5
2017-07-25T00:19:27.667Z,999.52
2017-07-25T00:20:08.152Z,999.46
2017-07-25T00:20:48.622Z,999.47
2017-07-25T00:21:29.072Z,999.5
2017-07-25T00:22:09.519Z,999.49
2017-07-25T00:24:22.244Z,999.49
2017-07-25T00:25:02.643Z,999.49
2017-07-25T00:25:43.115Z,999.48
2017-07-25T00:26:23.631Z,999.48
2017-07-25T00:28:16.948Z,999.5
2017-07-25T00:28:57.387Z,999.48
2017-07-25T00:29:37.890Z,999.49
2017-07-25T00:30:18.287Z,999.48
2017-07-25T00:30:58.735Z,999.5
2017-07-25T00:33:11.447Z,999.48
2017-07-25T00:33:51.898Z,999.45
2017-07-25T00:34:32.352Z,999.42
2017-07-25T00:35:12.786Z,999.43
2017-07-25T00:35:53.248Z,999.47
2017-07-25T00:36:33.688Z,999.46
2017-07-25T00:37:14.201Z,999.44
2017-07-25T00:37:54.620Z,999.46
2017-07-25T00:38:35.095Z,999.45
2017-07-25T00:39:15.551Z,999.47
2017-07-25T00:39:56.001Z,999.48
2017-07-25T00:40:36.413Z,999.45
2017-07-25T00:41:16.908Z,999.5
2017-07-25T00:41:57.367Z,999.52
2017-07-25T00:42:37.821Z,999.51
2017-07-25T00:43:18.241Z,999.5
2017-07-25T00:43:58.758Z,999.5
2017-07-25T00:44:39.193Z,999.5
2017-07-25T00:45:19.615Z,999.53
2017-07-25T00:46:00.038Z,999.52
2017-07-25T00:46:40.505Z,999.53
2017-07-25T00:47:20.939Z,999.49
2017-07-25T00:48:01.433Z,999.48
2017-07-25T00:48:41.876Z,999.45
2017-07-25T00:49:22.319Z,999.44
2017-07-25T00:53:23.126Z,999.4
2017-07-25T00:54:03.539Z,999.39
2017-07-25T00:54:44.025Z,999.4
2017-07-25T00:55:24.422Z,999.4
2017-07-25T00:56:04.909Z,999.41
2017-07-25T00:56:45.386Z,999.41
2017-07-25T00:57:25.811Z,999.37
2017-07-25T00:58:06.292Z,999.38
2017-07-25T00:58:46.733Z,999.36
2017-07-25T00:59:27.184Z,999.38
2017-07-25T01:00:07.655Z,999.38
2017-07-25T01:00:48.132Z,999.35
2017-07-25T01:01:28.625Z,999.36
2017-07-25T01:02:09.982Z,999.33
2017-07-25T01:02:50.433Z,999.31
2017-07-25T01:03:31.864Z,999.33
2017-07-25T01:04:12.249Z,999.34
2017-07-25T01:04:52.720Z,999.35
2017-07-25T01:05:33.162Z,999.37
2017-07-25T01:06:13.633Z,999.34
2017-07-25T01:06:54.073Z,999.34
2017-07-25T01:07:34.558Z,999.31
2017-07-25T01:08:15.069Z,999.34
2017-07-25T01:10:32.846Z,999.29
2017-07-25T01:11:13.296Z,999.29
2017-07-25T01:13:10.941Z,999.3
2017-07-25T01:13:51.385Z,999.27
2017-07-25T01:14:31.788Z,999.32
2017-07-25T01:16:59.786Z,999.31
2017-07-25T01:17:40.171Z,999.28
2017-07-25T01:19:52.840Z,999.29
2017-07-25T01:20:33.289Z,999.23
2017-07-25T01:21:14.758Z,999.24
2017-07-25T01:21:55.225Z,999.22
2017-07-25T01:22:35.654Z,999.2
2017-07-25T01:23:16.083Z,999.21
2017-07-25T01:23:56.550Z,999.2
2017-07-25T01:24:36.995Z,999.19
2017-07-25T01:25:17.452Z,999.18
2017-07-25T01:27:15.108Z,999.29
2017-07-25T01:27:55.548Z,999.27
2017-07-25T01:28:36.018Z,999.31
2017-07-25T01:29:16.451Z,999.35
2017-07-25T01:29:56.892Z,999.27
2017-07-25T01:30:37.336Z,999.31
2017-07-25T01:31:17.781Z,999.3
2017-07-25T01:31:58.250Z,999.3
2017-07-25T01:32:38.669Z,999.28
2017-07-25T01:33:19.379Z,999.29
2017-07-25T01:34:00.688Z,999.29
2017-07-25T01:35:53.291Z,999.28
2017-07-25T01:36:33.730Z,999.29
2017-07-25T01:37:14.170Z,999.29
2017-07-25T01:37:54.667Z,999.28
2017-07-25T01:38:35.115Z,999.3
2017-07-25T01:39:15.578Z,999.27
2017-07-25T01:39:56.052Z,999.29
2017-07-25T01:40:36.496Z,999.29
2017-07-25T01:41:16.957Z,999.28
2017-07-25T01:41:57.442Z,999.27
2017-07-25T01:42:37.889Z,999.27
2017-07-25T01:43:18.292Z,999.29
2017-07-25T01:43:58.787Z,999.29
2017-07-25T01:44:39.180Z,999.26
2017-07-25T01:45:19.612Z,999.28
2017-07-25T01:46:00.124Z,999.29
2017-07-25T01:47:58.884Z,999.3
2017-07-25T01:48:39.275Z,999.31
2017-07-25T01:49:19.711Z,999.33
2017-07-25T01:50:00.153Z,999.3
2017-07-25T01:50:40.715Z,999.27
2017-07-25T01:51:21.190Z,999.33
2017-07-25T01:52:01.755Z,999.32
2017-07-25T01:52:42.220Z,999.3
2017-07-25T01:53:23.448Z,999.22
2017-07-25T01:54:03.907Z,999.25
2017-07-25T01:54:44.329Z,999.22
2017-07-25T01:55:24.810Z,999.2
2017-07-25T01:56:05.264Z,999.24
2017-07-25T01:56:45.697Z,999.25
2017-07-25T01:58:38.317Z,999.22
2017-07-25T01:59:18.715Z,999.2
2017-07-25T01:59:59.132Z,999.22
2017-07-25T02:00:39.606Z,999.22
2017-07-25T02:01:20.062Z,999.26
2017-07-25T02:02:00.503Z,999.24
2017-07-25T02:02:40.901Z,999.22
2017-07-25T02:03:21.403Z,999.26
2017-07-25T02:04:01.858Z,999.21
2017-07-25T02:04:42.291Z,999.21
2017-07-25T02:05:22.747Z,999.22
2017-07-25T02:06:03.224Z,999.24
2017-07-25T02:06:43.658Z,999.22
2017-07-25T02:07:24.093Z,999.24
2017-07-25T02:08:04.545Z,999.2
2017-07-25T02:08:44.955Z,999.24
2017-07-25T02:09:25.427Z,999.23
2017-07-25T02:11:43.559Z,999.22
2017-07-25T02:12:24.003Z,999.23
2017-07-25T02:13:04.497Z,999.25
2017-07-25T02:13:44.952Z,999.2
2017-07-25T02:14:25.393Z,999.28
2017-07-25T02:15:05.854Z,999.26
2017-07-25T02:15:46.301Z,999.29
2017-07-25T02:17:59.058Z,999.21
2017-07-25T02:18:39.479Z,999.23
2017-07-25T02:21:07.423Z,999.22
2017-07-25T02:21:47.866Z,999.25
2017-07-25T02:22:28.289Z,999.29
2017-07-25T02:23:08.722Z,999.27
2017-07-25T02:23:49.168Z,999.27
2017-07-25T02:24:29.638Z,999.27
2017-07-25T02:25:10.071Z,999.28
2017-07-25T02:25:50.516Z,999.26
2017-07-25T02:26:30.973Z,999.26
2017-07-25T02:27:11.396Z,999.28
2017-07-25T02:27:51.855Z,999.22
2017-07-25T02:28:32.300Z,999.23
2017-07-25T02:30:45.046Z,999.25
2017-07-25T02:31:25.436Z,999.24
2017-07-25T02:32:05.899Z,999.21
2017-07-25T02:32:46.347Z,999.23
2017-07-25T02:33:26.787Z,999.22
2017-07-25T02:34:07.209Z,999.19
2017-07-25T02:34:47.645Z,999.19
2017-07-25T02:35:28.117Z,999.21
2017-07-25T02:37:25.762Z,999.18
2017-07-25T02:38:06.189Z,999.15
2017-07-25T02:38:46.629Z,999.15
2017-07-25T02:39:27.057Z,999.15
2017-07-25T02:40:07.517Z,999.11
2017-07-25T02:40:47.961Z,999.12
2017-07-25T02:41:28.435Z,999.08
2017-07-25T02:42:08.969Z,999.12
2017-07-25T02:42:49.374Z,999.15
2017-07-25T02:43:29.850Z,999.15
2017-07-25T02:44:10.317Z,999.14
2017-07-25T02:44:50.743Z,999.13
2017-07-25T02:45:31.235Z,999.17
2017-07-25T02:46:11.673Z,999.12
2017-07-25T02:46:52.086Z,999.16
2017-07-25T02:47:32.541Z,999.17
2017-07-25T02:48:12.986Z,999.17
2017-07-25T02:48:53.454Z,999.17
2017-07-25T02:51:06.263Z,999.13
2017-07-25T02:51:46.745Z,999.18
2017-07-25T02:52:27.180Z,999.15
2017-07-25T02:53:07.633Z,999.16
2017-07-25T02:53:48.122Z,999.16
2017-07-25T02:54:28.588Z,999.16
2017-07-25T02:56:46.333Z,999.09
2017-07-25T02:57:26.828Z,999.14
2017-07-25T02:58:07.285Z,999.11
2017-07-25T02:58:47.732Z,999.11
2017-07-25T02:59:28.191Z,999.09
2017-07-25T03:01:25.797Z,999.09
2017-07-25T03:02:06.234Z,999.12
2017-07-25T03:02:46.688Z,999.13
2017-07-25T03:03:27.096Z,999.14
2017-07-25T03:04:07.587Z,999.11
2017-07-25T03:04:48.024Z,999.15
2017-07-25T03:05:28.485Z,999.15
2017-07-25T03:06:08.915Z,999.15
2017-07-25T03:06:49.386Z,999.13
2017-07-25T03:07:29.860Z,999.16
2017-07-25T03:08:11.189Z,999.1
2017-07-25T03:08:51.690Z,999.11
2017-07-25T03:09:32.172Z,999.14
2017-07-25T03:10:12.542Z,999.12
2017-07-25T03:10:53.008Z,999.07
2017-07-25T03:11:33.457Z,999.13
2017-07-25T03:12:13.943Z,999.15
2017-07-25T03:12:54.379Z,999.19
2017-07-25T03:13:34.815Z,999.18
2017-07-25T03:14:15.274Z,999.18
2017-07-25T03:14:55.703Z,999.12
2017-07-25T03:15:36.110Z,999.13
2017-07-25T03:16:16.569Z,999.16
2017-07-25T03:18:09.140Z,999.12
2017-07-25T03:18:49.577Z,999.13
2017-07-25T03:19:30.036Z,999.18
2017-07-25T03:20:10.447Z,999.16
2017-07-25T03:20:50.986Z,999.2
2017-07-25T03:21:32.322Z,999.18
2017-07-25T03:23:25.286Z,999.2
2017-07-25T03:24:05.667Z,999.2
2017-07-25T03:24:46.100Z,999.21
2017-07-25T03:25:26.539Z,999.16
2017-07-25T03:26:06.955Z,999.21
2017-07-25T03:26:47.406Z,999.24
2017-07-25T03:27:27.868Z,999.17
2017-07-25T03:28:08.280Z,999.18
2017-07-25T03:30:26.068Z,999.17
2017-07-25T03:31:06.546Z,999.21
2017-07-25T03:31:47.013Z,999.16
2017-07-25T03:32:27.465Z,999.19
2017-07-25T03:33:07.929Z,999.14
2017-07-25T03:35:35.806Z,999.11
2017-07-25T03:36:16.264Z,999.12
2017-07-25T03:36:56.744Z,999.1
2017-07-25T03:37:37.180Z,999.14
2017-07-25T03:38:17.635Z,999.13
2017-07-25T03:38:58.107Z,999.12
2017-07-25T03:39:38.621Z,999.1
2017-07-25T03:40:19.060Z,999.14
2017-07-25T03:40:59.544Z,999.14
2017-07-25T03:41:39.958Z,999.15
2017-07-25T03:42:20.405Z,999.16
2017-07-25T03:43:00.884Z,999.08
2017-07-25T03:43:41.366Z,999.07
2017-07-25T03:46:09.299Z,999.11
2017-07-25T03:46:49.784Z,999.11
2017-07-25T03:49:07.610Z,999.06
2017-07-25T03:49:48.033Z,999.1
2017-07-25T03:50:28.510Z,999.09
2017-07-25T03:51:08.965Z,999.12
2017-07-25T03:51:49.458Z,999.07
2017-07-25T03:52:29.879Z,999.07
2017-07-25T03:53:10.327Z,999.08
2017-07-25T03:53:50.842Z,999.07
2017-07-25T03:54:31.322Z,999.06
2017-07-25T03:55:11.822Z,999.07
2017-07-25T03:55:52.279Z,999.1
2017-07-25T03:56:32.732Z,999.09
2017-07-25T03:57:13.338Z,999.11
2017-07-25T03:57:53.790Z,999.08
2017-07-25T03:58:34.261Z,999.1
2017-07-25T04:01:02.484Z,999.03
2017-07-25T04:01:42.911Z,999.06
2017-07-25T04:04:11.117Z,999.03
2017-07-25T04:04:51.521Z,999.05
2017-07-25T04:05:31.967Z,999.07
2017-07-25T04:06:12.404Z,999.04
2017-07-25T04:06:52.874Z,999.09
2017-07-25T04:07:33.317Z,999.12
2017-07-25T04:08:13.770Z,999.09
2017-07-25T04:08:54.245Z,999.09
2017-07-25T04:09:34.661Z,999.1
2017-07-25T04:10:15.121Z,999.06
2017-07-25T04:10:55.561Z,999.1
2017-07-25T04:11:35.982Z,999.09
2017-07-25T04:12:16.436Z,999.1
2017-07-25T04:12:56.863Z,999.09
2017-07-25T04:13:37.331Z,999.09
2017-07-25T04:14:17.760Z,999.05
2017-07-25T04:16:10.435Z,999.02
2017-07-25T04:16:50.862Z,999.04
2017-07-25T04:17:31.283Z,999.01
2017-07-25T04:18:11.745Z,999.02
2017-07-25T04:18:52.176Z,999.03
2017-07-25T04:19:33.625Z,998.97
2017-07-25T04:21:31.207Z,999.03
2017-07-25T04:22:11.667Z,999.03
2017-07-25T04:24:09.249Z,998.99
2017-07-25T04:24:49.707Z,998.95
2017-07-25T04:25:30.140Z,998.96
2017-07-25T04:27:22.789Z,998.97
2017-07-25T04:28:03.208Z,998.99
2017-07-25T04:28:43.657Z,999
2017-07-25T04:29:24.131Z,999.01
2017-07-25T04:31:52.306Z,998.96
2017-07-25T04:32:32.676Z,999
2017-07-25T04:33:13.111Z,998.97
2017-07-25T04:35:10.813Z,999.01
2017-07-25T04:35:51.172Z,999.01
2017-07-25T04:36:31.626Z,998.99
2017-07-25T04:37:12.069Z,998.96
2017-07-25T04:37:52.525Z,999
2017-07-25T04:38:32.931Z,998.98
2017-07-25T04:39:13.407Z,999.01
2017-07-25T04:39:53.825Z,998.99
2017-07-25T04:40:34.261Z,999.01
2017-07-25T04:41:14.742Z,999.01
2017-07-25T04:41:55.164Z,999.01
2017-07-25T04:42:35.641Z,999.05
2017-07-25T04:43:16.111Z,999.01
2017-07-25T04:43:56.525Z,999.02
2017-07-25T04:44:36.980Z,999.06
2017-07-25T04:45:17.395Z,999.02
2017-07-25T04:47:10.110Z,998.98
2017-07-25T04:47:51.268Z,998.91
2017-07-25T04:48:31.731Z,998.9
2017-07-25T04:49:12.159Z,998.91
2017-07-25T04:49:52.629Z,998.93
2017-07-25T04:50:33.037Z,998.88
2017-07-25T04:51:13.494Z,998.89
2017-07-25T04:53:41.392Z,998.91
2017-07-25T04:54:21.830Z,998.92
2017-07-25T04:55:02.281Z,998.91
2017-07-25T04:55:42.695Z,998.95
2017-07-25T04:56:23.183Z,998.91
2017-07-25T04:57:03.619Z,998.93
2017-07-25T04:57:44.063Z,998.91
2017-07-25T04:58:24.527Z,998.94
2017-07-25T04:59:04.981Z,998.91
2017-07-25T04:59:45.451Z,998.98
2017-07-25T05:00:25.866Z,998.93
2017-07-25T05:01:06.302Z,998.91
2017-07-25T05:01:46.770Z,998.92
2017-07-25T05:02:27.215Z,998.92
2017-07-25T05:04:39.947Z,998.97
2017-07-25T05:05:20.376Z,999
2017-07-25T05:06:00.800Z,999.02
2017-07-25T05:06:41.266Z,999
2017-07-25T05:07:21.666Z,999.02
2017-07-25T05:08:02.182Z,999.02
2017-07-25T05:08:42.687Z,999.03
2017-07-25T05:09:23.104Z,998.99
2017-07-25T05:10:03.555Z,999.01
2017-07-25T05:10:44.002Z,999.02
2017-07-25T05:11:24.467Z,999.01
2017-07-25T05:12:04.955Z,998.99
2017-07-25T05:12:45.398Z,998.98
2017-07-25T05:13:25.840Z,999
2017-07-25T05:14:06.292Z,998.98
2017-07-25T05:14:46.783Z,999.04
2017-07-25T05:15:27.187Z,998.95
2017-07-25T05:16:07.638Z,998.96
2017-07-25T05:16:48.029Z,998.97
2017-07-25T05:17:28.463Z,998.98
2017-07-25T05:18:09.821Z,998.96
2017-07-25T05:18:50.279Z,998.99
2017-07-25T05:19:30.708Z,998.96
2017-07-25T05:20:11.151Z,998.99
2017-07-25T05:20:51.594Z,998.99
2017-07-25T05:21:32.056Z,998.97
2017-07-25T05:23:29.668Z,998.94
2017-07-25T05:24:10.114Z,998.94
2017-07-25T05:24:50.551Z,998.98
2017-07-25T05:25:31.004Z,998.97
2017-07-25T05:27:49.126Z,998.96
2017-07-25T05:28:29.531Z,998.92
2017-07-25T05:29:09.935Z,998.96
2017-07-25T05:29:50.396Z,998.9
2017-07-25T05:30:30.849Z,998.94
2017-07-25T05:31:11.291Z,998.95
2017-07-25T05:31:51.731Z,998.92
2017-07-25T05:32:32.192Z,998.88
2017-07-25T05:33:12.603Z,998.92
2017-07-25T05:33:53.072Z,998.9
2017-07-25T05:34:33.500Z,998.91
2017-07-25T05:35:13.956Z,998.91
2017-07-25T05:35:54.416Z,998.88
2017-07-25T05:36:34.874Z,998.83
2017-07-25T05:37:15.443Z,998.9
2017-07-25T05:37:55.918Z,998.92
2017-07-25T05:38:36.372Z,998.93
2017-07-25T05:39:16.817Z,998.86
2017-07-25T05:39:57.271Z,998.89
2017-07-25T05:40:37.732Z,998.9
2017-07-25T05:44:23.869Z,998.9
2017-07-25T05:45:04.281Z,998.89
2017-07-25T05:45:44.731Z,998.88
2017-07-25T05:46:25.162Z,998.93
2017-07-25T05:47:05.614Z,998.93
2017-07-25T05:47:46.074Z,998.9
2017-07-25T05:48:26.543Z,998.91
2017-07-25T05:49:07.003Z,998.86
2017-07-25T05:49:47.529Z,998.91
2017-07-25T05:50:28.028Z,998.9
2017-07-25T05:51:08.442Z,998.91
2017-07-25T05:51:49.457Z,998.89
2017-07-25T05:52:29.865Z,998.87
2017-07-25T05:53:10.328Z,998.92
2017-07-25T05:53:50.785Z,998.92
2017-07-25T05:54:31.233Z,998.94
2017-07-25T05:55:11.765Z,998.93
2017-07-25T05:55:52.234Z,998.88
2017-07-25T05:58:20.206Z,998.92
2017-07-25T05:59:00.631Z,998.94
2017-07-25T05:59:41.085Z,998.94
2017-07-25T06:01:53.775Z,998.95
2017-07-25T06:02:34.203Z,998.93
2017-07-25T06:04:31.881Z,998.92
2017-07-25T06:05:12.320Z,998.91
2017-07-25T06:05:52.765Z,998.93
2017-07-25T06:06:33.180Z,998.94
2017-07-25T06:09:01.939Z,998.94
2017-07-25T06:09:42.301Z,998.97
2017-07-25T06:10:22.681Z,999
2017-07-25T06:11:03.142Z,998.96
2017-07-25T06:11:43.634Z,998.93
2017-07-25T06:12:24.638Z,998.98
2017-07-25T06:13:05.081Z,998.99
2017-07-25T06:13:45.550Z,998.96
2017-07-25T06:14:25.999Z,999.02
2017-07-25T06:15:06.428Z,999
2017-07-25T06:15:47.752Z,998.99
2017-07-25T06:16:28.971Z,998.97
2017-07-25T06:17:09.422Z,998.98
2017-07-25T06:17:49.875Z,999.01
2017-07-25T06:18:30.323Z,999.04
2017-07-25T06:19:11.275Z,998.99
2017-07-25T06:19:51.738Z,999
2017-07-25T06:22:04.476Z,999.01
2017-07-25T06:22:44.913Z,998.98
2017-07-25T06:25:02.719Z,999.04
2017-07-25T06:25:43.184Z,999.05
2017-07-25T06:26:23.648Z,999.03
2017-07-25T06:27:04.098Z,999.04
2017-07-25T06:27:44.656Z,999.05
2017-07-25T06:28:25.095Z,999.06
2017-07-25T06:29:05.538Z,999.06
2017-07-25T06:29:46.804Z,999.05
2017-07-25T06:30:27.263Z,999.04
2017-07-25T06:31:07.745Z,999.03
2017-07-25T06:31:48.168Z,999.01
2017-07-25T06:32:28.693Z,998.99
2017-07-25T06:33:09.183Z,998.92
2017-07-25T06:33:49.591Z,999.05
2017-07-25T06:34:30.061Z,999.03
2017-07-25T06:35:10.588Z,998.99
2017-07-25T06:35:51.080Z,998.99
2017-07-25T06:36:31.493Z,998.97
2017-07-25T06:38:29.162Z,998.97
2017-07-25T06:39:09.619Z,998.95
2017-07-25T06:39:50.109Z,998.99
2017-07-25T06:40:30.603Z,998.97
2017-07-25T06:41:11.051Z,998.9
2017-07-25T06:41:51.507Z,998.95
2017-07-25T06:42:31.926Z,998.92
2017-07-25T06:43:12.424Z,998.95
2017-07-25T06:43:52.897Z,998.95
2017-07-25T06:44:33.451Z,998.97
2017-07-25T06:45:13.891Z,998.99
2017-07-25T06:45:54.408Z,998.94
2017-07-25T06:46:34.900Z,998.92
2017-07-25T06:47:15.345Z,998.96
2017-07-25T06:49:43.295Z,998.95
2017-07-25T06:50:23.738Z,998.94
2017-07-25T06:51:04.444Z,998.96
2017-07-25T06:51:44.894Z,998.96
2017-07-25T06:54:02.699Z,999.09
2017-07-25T06:54:43.175Z,999.06
2017-07-25T06:55:23.686Z,999.12
2017-07-25T06:56:04.107Z,999.1
2017-07-25T06:56:44.572Z,999.17
2017-07-25T06:57:25.072Z,999.22
2017-07-25T06:59:37.967Z,999.3
2017-07-25T07:00:18.397Z,999.25
2017-07-25T07:00:58.842Z,999.28
2017-07-25T07:01:39.375Z,999.21
2017-07-25T07:02:19.844Z,999.19
2017-07-25T07:03:00.296Z,999.29
2017-07-25T07:03:40.751Z,999.24
2017-07-25T07:04:21.217Z,999.27
2017-07-25T07:05:01.743Z,999.3
2017-07-25T07:07:19.558Z,999.28
2017-07-25T07:08:00.037Z,999.33
2017-07-25T07:08:40.515Z,999.36
2017-07-25T07:09:20.992Z,999.36
2017-07-25T07:10:01.519Z,999.37
2017-07-25T07:10:41.977Z,999.3
2017-07-25T07:11:22.424Z,999.27
2017-07-25T07:12:02.912Z,999.27
2017-07-25T07:12:43.357Z,999.3
2017-07-25T07:13:23.848Z,999.26
2017-07-25T07:14:04.362Z,999.27
2017-07-25T07:16:17.074Z,999.25
2017-07-25T07:16:57.772Z,999.25
2017-07-25T07:17:38.354Z,999.32
2017-07-25T07:18:18.736Z,999.31
2017-07-25T07:18:59.244Z,999.27
2017-07-25T07:20:56.939Z,999.31
2017-07-25T07:21:37.353Z,999.29
2017-07-25T07:22:17.815Z,999.34
2017-07-25T07:22:58.321Z,999.29
2017-07-25T07:23:38.801Z,999.33
2017-07-25T07:24:19.323Z,999.27
2017-07-25T07:26:12.363Z,999.36
2017-07-25T07:26:52.764Z,999.32
2017-07-25T07:27:33.206Z,999.24
2017-07-25T07:28:13.693Z,999.2
2017-07-25T07:28:54.297Z,999.3
2017-07-25T07:29:34.742Z,999.28
2017-07-25T07:30:15.184Z,999.23
2017-07-25T07:30:55.628Z,999.2
2017-07-25T07:31:36.091Z,999.25
2017-07-25T07:32:16.564Z,999.22
2017-07-25T07:32:57.029Z,999.19
2017-07-25T07:33:37.575Z,999.14
2017-07-25T07:34:18.019Z,999.16
2017-07-25T07:34:58.499Z,999.14
2017-07-25T07:37:16.464Z,999.13
2017-07-25T07:37:56.852Z,999.1
2017-07-25T07:38:37.319Z,999.12
2017-07-25T07:39:17.776Z,999.12
2017-07-25T07:39:59.199Z,999.12
2017-07-25T07:40:39.689Z,999.05
2017-07-25T07:41:20.149Z,999.07
2017-07-25T07:42:00.614Z,999.06
2017-07-25T07:42:41.064Z,999.03
2017-07-25T07:43:21.620Z,999.05
2017-07-25T07:44:02.271Z,999.04
2017-07-25T07:44:42.861Z,999.1
2017-07-25T07:45:23.543Z,999.07
2017-07-25T07:47:41.489Z,999.05
2017-07-25T07:48:21.850Z,999.1
2017-07-25T07:49:02.320Z,999.14
2017-07-25T07:49:42.884Z,999.12
2017-07-25T07:50:23.425Z,999.08
2017-07-25T07:51:04.061Z,999.12
2017-07-25T07:51:44.669Z,999.14
2017-07-25T07:52:25.216Z,999.21
2017-07-25T07:53:05.807Z,999.2
2017-07-25T07:53:46.380Z,999.16
2017-07-25T07:54:26.969Z,999.18
2017-07-25T07:55:08.346Z,999.13
2017-07-25T07:55:48.800Z,999.12
2017-07-25T07:56:29.344Z,999.11
2017-07-25T07:57:09.961Z,999.08
2017-07-25T07:57:50.603Z,999.14
2017-07-25T07:58:31.491Z,999.13
2017-07-25T07:59:12.010Z,999.09
2017-07-25T07:59:52.509Z,999.09
2017-07-25T08:00:33.039Z,999.01
2017-07-25T08:01:14.062Z,999.01
2017-07-25T08:01:54.666Z,999.11
2017-07-25T08:02:35.283Z,999.09
2017-07-25T08:03:17.687Z,999.04
2017-07-25T08:03:58.372Z,999.02
2017-07-25T08:04:39.125Z,999.03
2017-07-25T08:06:52.703Z,998.99
2017-07-25T08:08:50.306Z,998.96
2017-07-25T08:09:30.838Z,999.01
2017-07-25T08:10:11.299Z,998.97
2017-07-25T08:10:51.794Z,998.99
2017-07-25T08:11:32.321Z,998.95
2017-07-25T08:12:12.805Z,998.96
2017-07-25T08:12:53.268Z,998.98
2017-07-25T08:13:33.760Z,998.94
2017-07-25T08:14:14.283Z,998.96
2017-07-25T08:14:54.733Z,999
2017-07-25T08:15:35.184Z,999.02
2017-07-25T08:17:52.969Z,998.97
2017-07-25T08:18:33.481Z,998.96
2017-07-25T08:19:13.938Z,999.02
2017-07-25T08:19:54.425Z,998.97
2017-07-25T08:20:34.887Z,999
2017-07-25T08:21:15.366Z,998.99
2017-07-25T08:21:55.842Z,998.99
2017-07-25T08:22:37.881Z,999.05
2017-07-25T08:23:18.332Z,998.97
2017-07-25T08:23:58.815Z,998.92
2017-07-25T08:24:39.320Z,999
2017-07-25T08:25:19.797Z,999
2017-07-25T08:27:12.354Z,998.98
2017-07-25T08:27:52.927Z,999.01
2017-07-25T08:28:33.426Z,999.01
2017-07-25T08:29:13.884Z,999.01
2017-07-25T08:29:54.400Z,999.03
2017-07-25T08:32:22.326Z,999.04
2017-07-25T08:33:02.832Z,999.04
2017-07-25T08:33:43.358Z,999.03
2017-07-25T08:34:23.849Z,999.07
2017-07-25T08:35:04.362Z,999.03
2017-07-25T08:35:44.840Z,999.07
2017-07-25T08:36:25.319Z,999.02
2017-07-25T08:37:05.800Z,999.05
2017-07-25T08:37:46.365Z,999
2017-07-25T08:38:26.887Z,999.03
2017-07-25T08:39:07.324Z,999.09
2017-07-25T08:40:59.913Z,999.08
2017-07-25T08:41:40.368Z,999.02
2017-07-25T08:42:20.896Z,999.02
2017-07-25T08:43:01.417Z,999.01
2017-07-25T08:43:41.921Z,999.05
2017-07-25T08:44:22.484Z,999.01
2017-07-25T08:45:03.012Z,999.02
2017-07-25T08:45:43.490Z,999.03
2017-07-25T08:46:23.902Z,999.08
2017-07-25T08:47:04.335Z,999.05
2017-07-25T08:47:44.844Z,999.08
2017-07-25T08:48:26.264Z,999.17
2017-07-25T08:49:06.725Z,999.3
2017-07-25T08:51:20.050Z,999.08
2017-07-25T08:52:00.581Z,999.1
2017-07-25T08:52:41.104Z,999.06
2017-07-25T08:53:21.598Z,999.15
2017-07-25T08:54:02.070Z,999.17
2017-07-25T08:54:45.142Z,999.22
2017-07-25T08:55:25.697Z,999.13
2017-07-25T08:56:07.236Z,999.06
2017-07-25T08:56:47.832Z,999.02
2017-07-25T08:57:28.399Z,998.98
2017-07-25T08:58:08.961Z,998.94
2017-07-25T08:58:49.468Z,998.93
2017-07-25T08:59:29.970Z,998.99
2017-07-25T09:01:42.770Z,999.05
2017-07-25T09:02:23.213Z,999.05
2017-07-25T09:03:03.698Z,999.05
2017-07-25T09:03:44.167Z,998.94
2017-07-25T09:04:24.665Z,999.02
2017-07-25T09:05:05.189Z,999.07
2017-07-25T09:05:45.677Z,999.07
2017-07-25T09:06:26.209Z,999.01
2017-07-25T09:07:06.662Z,999.08
2017-07-25T09:07:47.119Z,999.15
2017-07-25T09:10:15.060Z,999.14
2017-07-25T09:10:55.532Z,999.12
2017-07-25T09:11:36.054Z,999.14
2017-07-25T09:12:16.544Z,999.12
2017-07-25T09:12:57.018Z,999.2
2017-07-25T09:13:37.484Z,999.03
2017-07-25T09:14:17.988Z,998.97
2017-07-25T09:14:58.477Z,999.08
2017-07-25T09:15:38.974Z,998.99
2017-07-25T09:16:19.490Z,998.97
2017-07-25T09:16:59.963Z,998.87
2017-07-25T09:17:40.441Z,998.97
2017-07-25T09:18:20.962Z,998.88
2017-07-25T09:19:01.465Z,998.84
2017-07-25T09:19:41.951Z,998.85
2017-07-25T09:20:22.453Z,998.92
2017-07-25T09:21:03.005Z,998.99
2017-07-25T09:21:43.562Z,998.99
2017-07-25T09:22:24.089Z,999.01
2017-07-25T09:23:04.590Z,999.02
2017-07-25T09:23:45.044Z,998.96
2017-07-25T09:25:38.013Z,999.01
2017-07-25T09:26:18.507Z,998.97
2017-07-25T09:26:58.979Z,998.92
2017-07-25T09:27:39.469Z,998.86
2017-07-25T09:28:19.968Z,998.78
2017-07-25T09:29:00.439Z,998.84
2017-07-25T09:29:40.960Z,998.94
2017-07-25T09:30:21.507Z,998.93
2017-07-25T09:31:01.995Z,998.96
2017-07-25T09:31:42.495Z,998.91
2017-07-25T09:32:23.008Z,998.91
2017-07-25T09:33:03.515Z,998.89
2017-07-25T09:33:43.971Z,998.83
2017-07-25T09:34:24.466Z,998.83
2017-07-25T09:35:04.973Z,998.93
2017-07-25T09:35:45.447Z,998.91
2017-07-25T09:36:25.933Z,998.95
2017-07-25T09:37:06.422Z,999.08
2017-07-25T09:37:46.968Z,999.11
2017-07-25T09:38:27.455Z,999.08
2017-07-25T09:39:07.956Z,999.09
2017-07-25T09:39:48.466Z,999.05
2017-07-25T09:40:28.933Z,999.04
2017-07-25T09:41:09.432Z,999.01
2017-07-25T09:41:49.945Z,999
2017-07-25T09:42:30.462Z,998.99
2017-07-25T09:43:11.021Z,998.99
2017-07-25T09:43:51.489Z,998.92
2017-07-25T09:44:32.038Z,998.9
2017-07-25T09:45:12.562Z,998.87
2017-07-25T09:45:53.062Z,998.94
2017-07-25T09:46:33.602Z,998.9
2017-07-25T09:47:14.169Z,998.76
2017-07-25T09:49:42.130Z,998.86
2017-07-25T09:50:22.621Z,998.88
2017-07-25T09:51:03.086Z,998.9
2017-07-25T09:51:43.560Z,998.88
2017-07-25T09:52:24.078Z,998.91
2017-07-25T09:53:04.531Z,998.93
2017-07-25T09:53:44.996Z,998.92
2017-07-25T09:54:25.537Z,998.91
2017-07-25T09:55:06.035Z,998.94
2017-07-25T09:57:23.817Z,998.99
2017-07-25T09:58:04.377Z,999.08
2017-07-25T09:58:44.829Z,999.08
2017-07-25T09:59:25.348Z,999.13
2017-07-25T10:00:06.649Z,999.11
2017-07-25T10:00:47.174Z,999.05
2017-07-25T10:01:27.658Z,999.01
2017-07-25T10:02:08.786Z,998.92
2017-07-25T10:03:40.814Z,998.96
2017-07-25T10:04:53.638Z,999.02
2017-07-25T10:05:38.536Z,999.05
2017-07-25T10:06:19.036Z,999.01
2017-07-25T10:06:59.502Z,999.04
2017-07-25T10:07:40.032Z,999.01
2017-07-25T10:08:20.512Z,999.06
2017-07-25T10:09:00.997Z,999.06
2017-07-25T10:09:41.540Z,999.09
2017-07-25T10:10:22.062Z,999.11
2017-07-25T10:11:02.548Z,999.02
2017-07-25T10:11:43.059Z,999.09
2017-07-25T10:12:23.566Z,999.08
2017-07-25T10:13:04.114Z,999.13
2017-07-25T10:13:45.530Z,999.12
2017-07-25T10:14:26.025Z,999.22
2017-07-25T10:15:06.524Z,999.28
2017-07-25T10:16:59.141Z,999.53
2017-07-25T10:17:39.550Z,999.61
2017-07-25T10:18:20.654Z,999.65
2017-07-25T10:19:01.144Z,999.68
2017-07-25T10:19:42.156Z,999.71
2017-07-25T10:20:22.621Z,999.75
2017-07-25T10:21:03.064Z,999.68
2017-07-25T10:21:43.518Z,999.62
2017-07-25T10:22:23.982Z,999.6